Temp: 17.1°C   Baro: 1010.5mb
  Wind: 4.9mph   Dir: W (279°)
  Rain: 0.8mm (0.0mm/hr)
  Solar: 93W/m2  Hum: 90%
 
Bath Spa Weather Station Historical Data
Daily Summary for June 30, 2020 Units:  Both    English   Metric
Daily Weekly Monthly Yearly Custom
  High: Low: Average:
Temperature: 67.1 °F /  19.5 °C 53.8 °F /  12.1 °C 59.2 °F /  15.1 °C
Dew Point: 59.8 °F /  15.4 °C 48.6 °F /  9.2 °C 53.6 °F /  12 °C
Humidity: 87% 73.2% 82%
Wind Speed: 9mph /  14.5km/h - 4.7mph /  7.6km/h
Wind Gust: 17mph /  27.4km/h - -
Wind- - WSW
Pressure: 29.82 in /  1009.7 hPa 29.66 in /  1004.3 hPa -
Precipitation: 0.00 in /  0 mm    
Historical Graphs
 
 
Tabular Data for June 30, 2020
Time Temperature Dew Point Pressure Wind Wind Speed Wind Gust Humidity Rainfall Rate (Hourly) solar
00:04 55.1 °F /  12.8 °C 48.8 °F /  9.3 °C 29.82in /  1009.7hPa West 4.8mph /  7.7km/h 9mph /  14.5km/h 79.4% 0.00in /  0mm 0 W/m2
00:09 55 °F /  12.8 °C 49 °F /  9.4 °C 29.82in /  1009.7hPa West 3.7mph /  6km/h 6mph /  9.7km/h 80.2% 0.00in /  0mm 0 W/m2
00:14 55 °F /  12.8 °C 49.3 °F /  9.6 °C 29.82in /  1009.7hPa West 4.1mph /  6.6km/h 7mph /  11.3km/h 81% 0.00in /  0mm 0 W/m2
00:19 55 °F /  12.8 °C 49.3 °F /  9.6 °C 29.82in /  1009.7hPa WSW 4.8mph /  7.7km/h 9mph /  14.5km/h 80.8% 0.00in /  0mm 0 W/m2
00:24 55.2 °F /  12.9 °C 49.1 °F /  9.5 °C 29.82in /  1009.7hPa West 5.1mph /  8.2km/h 11mph /  17.7km/h 80% 0.00in /  0mm 0 W/m2
00:29 55.3 °F /  12.9 °C 49.2 °F /  9.6 °C 29.82in /  1009.7hPa West 4.7mph /  7.6km/h 7mph /  11.3km/h 80% 0.00in /  0mm 0 W/m2
00:34 55.4 °F /  13 °C 49.3 °F /  9.6 °C 29.81in /  1009.4hPa West 3.3mph /  5.3km/h 8mph /  12.9km/h 80% 0.00in /  0mm 0 W/m2
00:39 55.6 °F /  13.1 °C 49.4 °F /  9.7 °C 29.81in /  1009.4hPa West 4.6mph /  7.4km/h 10mph /  16.1km/h 79.8% 0.00in /  0mm 0 W/m2
00:44 55.7 °F /  13.2 °C 49.2 °F /  9.6 °C 29.81in /  1009.4hPa WSW 7.4mph /  11.9km/h 13mph /  20.9km/h 79% 0.00in /  0mm 0 W/m2
00:49 55.8 °F /  13.2 °C 49 °F /  9.4 °C 29.80in /  1009hPa WSW 5.4mph /  8.7km/h 11mph /  17.7km/h 78.2% 0.00in /  0mm 0 W/m2
00:54 55.8 °F /  13.2 °C 48.9 °F /  9.4 °C 29.80in /  1009hPa WSW 5mph /  8km/h 10mph /  16.1km/h 78% 0.00in /  0mm 0 W/m2
00:59 55.8 °F /  13.2 °C 48.8 °F /  9.3 °C 29.80in /  1009hPa WSW 7.1mph /  11.4km/h 10mph /  16.1km/h 77.6% 0.00in /  0mm 0 W/m2
01:04 55.8 °F /  13.2 °C 48.7 °F /  9.3 °C 29.80in /  1009hPa WSW 4.7mph /  7.6km/h 9mph /  14.5km/h 77% 0.00in /  0mm 0 W/m2
01:09 55.8 °F /  13.2 °C 48.7 °F /  9.3 °C 29.80in /  1009hPa WSW 3.8mph /  6.1km/h 9mph /  14.5km/h 77% 0.00in /  0mm 0 W/m2
01:14 55.7 °F /  13.2 °C 48.7 °F /  9.3 °C 29.80in /  1009hPa SW 6.4mph /  10.3km/h 11mph /  17.7km/h 77% 0.00in /  0mm 0 W/m2
01:19 55.6 °F /  13.1 °C 48.7 °F /  9.3 °C 29.80in /  1009hPa WSW 4.8mph /  7.7km/h 8mph /  12.9km/h 77.4% 0.00in /  0mm 0 W/m2
01:24 55.6 °F /  13.1 °C 48.9 °F /  9.4 °C 29.80in /  1009hPa WSW 4.7mph /  7.6km/h 8mph /  12.9km/h 78% 0.00in /  0mm 0 W/m2
01:29 55.6 °F /  13.1 °C 48.9 °F /  9.4 °C 29.80in /  1009hPa West 6mph /  9.7km/h 11mph /  17.7km/h 78% 0.00in /  0mm 0 W/m2
01:34 55.6 °F /  13.1 °C 48.9 °F /  9.4 °C 29.80in /  1009hPa WSW 6.8mph /  10.9km/h 12mph /  19.3km/h 78% 0.00in /  0mm 0 W/m2
01:39 55.6 °F /  13.1 °C 48.9 °F /  9.4 °C 29.80in /  1009hPa West 7.2mph /  11.6km/h 12mph /  19.3km/h 78% 0.00in /  0mm 0 W/m2
01:44 55.6 °F /  13.1 °C 48.9 °F /  9.4 °C 29.79in /  1008.7hPa WSW 8.2mph /  13.2km/h 12mph /  19.3km/h 78% 0.00in /  0mm 0 W/m2
01:49 55.6 °F /  13.1 °C 48.8 °F /  9.3 °C 29.79in /  1008.7hPa WSW 9mph /  14.5km/h 13mph /  20.9km/h 78% 0.00in /  0mm 0 W/m2
01:54 55.4 °F /  13 °C 48.7 °F /  9.3 °C 29.79in /  1008.7hPa West 6.4mph /  10.3km/h 12mph /  19.3km/h 78.2% 0.00in /  0mm 0 W/m2
01:59 55.4 °F /  13 °C 48.9 °F /  9.4 °C 29.79in /  1008.7hPa WSW 6.6mph /  10.6km/h 11mph /  17.7km/h 79% 0.00in /  0mm 0 W/m2
02:04 55.2 °F /  12.9 °C 48.7 °F /  9.3 °C 29.79in /  1008.7hPa West 6.6mph /  10.6km/h 12mph /  19.3km/h 79% 0.00in /  0mm 0 W/m2
02:09 55.2 °F /  12.9 °C 48.7 °F /  9.3 °C 29.78in /  1008.4hPa West 5.3mph /  8.5km/h 12mph /  19.3km/h 79% 0.00in /  0mm 0 W/m2
02:14 55.2 °F /  12.9 °C 48.7 °F /  9.3 °C 29.78in /  1008.4hPa WSW 8.4mph /  13.5km/h 12mph /  19.3km/h 79% 0.00in /  0mm 0 W/m2
02:19 55.1 °F /  12.8 °C 48.6 °F /  9.2 °C 29.78in /  1008.4hPa WSW 4.5mph /  7.2km/h 10mph /  16.1km/h 79% 0.00in /  0mm 0 W/m2
02:24 55 °F /  12.8 °C 48.8 °F /  9.3 °C 29.78in /  1008.4hPa West 3mph /  4.8km/h 10mph /  16.1km/h 79.8% 0.00in /  0mm 0 W/m2
02:29 54.9 °F /  12.7 °C 48.7 °F /  9.3 °C 29.78in /  1008.4hPa West 4.5mph /  7.2km/h 9mph /  14.5km/h 80% 0.00in /  0mm 0 W/m2
02:34 54.7 °F /  12.6 °C 48.6 °F /  9.2 °C 29.78in /  1008.4hPa West 4.1mph /  6.6km/h 9mph /  14.5km/h 80% 0.00in /  0mm 0 W/m2
02:39 54.7 °F /  12.6 °C 48.8 °F /  9.3 °C 29.78in /  1008.4hPa WSW 4.5mph /  7.2km/h 9mph /  14.5km/h 80.6% 0.00in /  0mm 0 W/m2
02:44 54.7 °F /  12.6 °C 48.9 °F /  9.4 °C 29.78in /  1008.4hPa WSW 5.1mph /  8.2km/h 12mph /  19.3km/h 81% 0.00in /  0mm 0 W/m2
02:49 54.7 °F /  12.6 °C 48.9 °F /  9.4 °C 29.78in /  1008.4hPa WSW 5.1mph /  8.2km/h 9mph /  14.5km/h 81% 0.00in /  0mm 0 W/m2
02:54 54.6 °F /  12.6 °C 48.8 °F /  9.3 °C 29.78in /  1008.4hPa West 5.8mph /  9.3km/h 10mph /  16.1km/h 81% 0.00in /  0mm 0 W/m2
02:59 54.5 °F /  12.5 °C 48.7 °F /  9.3 °C 29.78in /  1008.4hPa West 4.2mph /  6.8km/h 9mph /  14.5km/h 81% 0.00in /  0mm 0 W/m2
03:04 54.4 °F /  12.4 °C 48.6 °F /  9.2 °C 29.78in /  1008.4hPa WSW 5.8mph /  9.3km/h 11mph /  17.7km/h 81% 0.00in /  0mm 0 W/m2
03:09 54.3 °F /  12.4 °C 48.6 °F /  9.2 °C 29.78in /  1008.4hPa West 5.7mph /  9.2km/h 9mph /  14.5km/h 81% 0.00in /  0mm 0 W/m2
03:14 54.3 °F /  12.4 °C 48.8 °F /  9.3 °C 29.78in /  1008.4hPa West 4mph /  6.4km/h 9mph /  14.5km/h 81.6% 0.00in /  0mm 0 W/m2
03:19 54.2 °F /  12.3 °C 48.8 °F /  9.3 °C 29.78in /  1008.4hPa West 4mph /  6.4km/h 8mph /  12.9km/h 82% 0.00in /  0mm 0 W/m2
03:24 54.1 °F /  12.3 °C 48.7 °F /  9.3 °C 29.78in /  1008.4hPa West 4.4mph /  7.1km/h 10mph /  16.1km/h 82% 0.00in /  0mm 0 W/m2
03:29 54.1 °F /  12.3 °C 48.7 °F /  9.3 °C 29.77in /  1008hPa West 3.6mph /  5.8km/h 8mph /  12.9km/h 82% 0.00in /  0mm 0 W/m2
03:34 54 °F /  12.2 °C 48.6 °F /  9.2 °C 29.78in /  1008.4hPa West 4.4mph /  7.1km/h 9mph /  14.5km/h 82% 0.00in /  0mm 0 W/m2
03:38 54 °F /  12.2 °C 48.8 °F /  9.3 °C 29.78in /  1008.4hPa West 4.7mph /  7.6km/h 8mph /  12.9km/h 82.8% 0.00in /  0mm 0 W/m2
03:44 54 °F /  12.2 °C 48.9 °F /  9.4 °C 29.77in /  1008hPa West 5.9mph /  9.5km/h 10mph /  16.1km/h 83% 0.00in /  0mm 0 W/m2
03:49 54 °F /  12.2 °C 48.9 °F /  9.4 °C 29.77in /  1008hPa WSW 6.6mph /  10.6km/h 10mph /  16.1km/h 83% 0.00in /  0mm 0 W/m2
03:54 54 °F /  12.2 °C 48.9 °F /  9.4 °C 29.77in /  1008hPa West 4.8mph /  7.7km/h 9mph /  14.5km/h 83% 0.00in /  0mm 0 W/m2
03:59 54 °F /  12.2 °C 48.9 °F /  9.4 °C 29.77in /  1008hPa WSW 5.4mph /  8.7km/h 9mph /  14.5km/h 83% 0.00in /  0mm 0 W/m2
04:04 54.1 °F /  12.3 °C 49.1 °F /  9.5 °C 29.76in /  1007.7hPa WSW 4.1mph /  6.6km/h 10mph /  16.1km/h 83% 0.00in /  0mm 0 W/m2
04:09 54.1 °F /  12.3 °C 49.1 °F /  9.5 °C 29.76in /  1007.7hPa WSW 3.2mph /  5.1km/h 5mph /  8km/h 83% 0.00in /  0mm 0 W/m2
04:14 54.1 °F /  12.3 °C 49.1 °F /  9.5 °C 29.76in /  1007.7hPa WSW 4.5mph /  7.2km/h 7mph /  11.3km/h 83% 0.00in /  0mm 0 W/m2
04:19 54.1 °F /  12.3 °C 49.1 °F /  9.5 °C 29.76in /  1007.7hPa WSW 3.2mph /  5.1km/h 8mph /  12.9km/h 83% 0.00in /  0mm 0 W/m2
04:24 54.1 °F /  12.3 °C 49.1 °F /  9.5 °C 29.76in /  1007.7hPa WSW 5mph /  8km/h 11mph /  17.7km/h 83% 0.00in /  0mm 0 W/m2
04:29 54.1 °F /  12.3 °C 49 °F /  9.4 °C 29.76in /  1007.7hPa West 3.6mph /  5.8km/h 10mph /  16.1km/h 83% 0.00in /  0mm 0 W/m2
04:34 54 °F /  12.2 °C 48.9 °F /  9.4 °C 29.76in /  1007.7hPa WSW 4.5mph /  7.2km/h 9mph /  14.5km/h 83% 0.00in /  0mm 0 W/m2
04:39 54 °F /  12.2 °C 49.1 °F /  9.5 °C 29.76in /  1007.7hPa West 4.1mph /  6.6km/h 9mph /  14.5km/h 83.4% 0.00in /  0mm 0 W/m2
04:44 54 °F /  12.2 °C 48.9 °F /  9.4 °C 29.76in /  1007.7hPa WSW 4.5mph /  7.2km/h 8mph /  12.9km/h 83% 0.00in /  0mm 0 W/m2
04:49 54 °F /  12.2 °C 49 °F /  9.4 °C 29.76in /  1007.7hPa WSW 3.9mph /  6.3km/h 7mph /  11.3km/h 83.2% 0.00in /  0mm 0 W/m2
04:54 54 °F /  12.2 °C 49.3 °F /  9.6 °C 29.75in /  1007.3hPa WSW 4.5mph /  7.2km/h 8mph /  12.9km/h 84% 0.00in /  0mm 0 W/m2
04:59 54 °F /  12.2 °C 49.3 °F /  9.6 °C 29.75in /  1007.3hPa WSW 4.5mph /  7.2km/h 7mph /  11.3km/h 84% 0.00in /  0mm 0 W/m2
05:04 54 °F /  12.2 °C 49.3 °F /  9.6 °C 29.76in /  1007.7hPa WSW 4.5mph /  7.2km/h 6mph /  9.7km/h 84% 0.00in /  0mm 0 W/m2
05:09 54 °F /  12.2 °C 49.3 °F /  9.6 °C 29.75in /  1007.3hPa WSW 3.3mph /  5.3km/h 6mph /  9.7km/h 84% 0.00in /  0mm 0 W/m2
05:14 53.9 °F /  12.2 °C 49.2 °F /  9.6 °C 29.76in /  1007.7hPa West 4.8mph /  7.7km/h 7mph /  11.3km/h 84% 0.00in /  0mm 0 W/m2
05:19 53.8 °F /  12.1 °C 49.1 °F /  9.5 °C 29.76in /  1007.7hPa West 2.9mph /  4.7km/h 6mph /  9.7km/h 84% 0.00in /  0mm 5 W/m2
05:24 53.8 °F /  12.1 °C 49.3 °F /  9.6 °C 29.75in /  1007.3hPa West 2.4mph /  3.9km/h 6mph /  9.7km/h 84.6% 0.00in /  0mm 5 W/m2
05:29 53.9 °F /  12.2 °C 49.5 °F /  9.7 °C 29.75in /  1007.3hPa WSW 4.2mph /  6.8km/h 8mph /  12.9km/h 85% 0.00in /  0mm 5 W/m2
05:34 54 °F /  12.2 °C 49.6 °F /  9.8 °C 29.75in /  1007.3hPa WSW 4.9mph /  7.9km/h 8mph /  12.9km/h 85% 0.00in /  0mm 7 W/m2
05:39 54 °F /  12.2 °C 49.6 °F /  9.8 °C 29.75in /  1007.3hPa WSW 4.1mph /  6.6km/h 7mph /  11.3km/h 85% 0.00in /  0mm 9 W/m2
05:44 54 °F /  12.2 °C 49.6 °F /  9.8 °C 29.75in /  1007.3hPa WSW 3.2mph /  5.1km/h 7mph /  11.3km/h 85% 0.00in /  0mm 9 W/m2
05:49 54.1 °F /  12.3 °C 49.7 °F /  9.8 °C 29.75in /  1007.3hPa WSW 5.2mph /  8.4km/h 8mph /  12.9km/h 85% 0.00in /  0mm 7 W/m2
05:54 54.1 °F /  12.3 °C 49.8 °F /  9.9 °C 29.75in /  1007.3hPa West 4.4mph /  7.1km/h 9mph /  14.5km/h 85% 0.00in /  0mm 9 W/m2
05:59 54.1 °F /  12.3 °C 49.8 °F /  9.9 °C 29.75in /  1007.3hPa WSW 4.8mph /  7.7km/h 8mph /  12.9km/h 85% 0.00in /  0mm 11 W/m2
06:04 54.1 °F /  12.3 °C 49.7 °F /  9.8 °C 29.75in /  1007.3hPa WSW 3.7mph /  6km/h 7mph /  11.3km/h 84.5% 0.00in /  0mm 16 W/m2
06:09 54.1 °F /  12.3 °C 49.5 °F /  9.7 °C 29.75in /  1007.3hPa WSW 4.8mph /  7.7km/h 9mph /  14.5km/h 84% 0.00in /  0mm 18 W/m2
06:14 54.3 °F /  12.4 °C 49.8 °F /  9.9 °C 29.75in /  1007.3hPa WSW 3.3mph /  5.3km/h 6mph /  9.7km/h 84.8% 0.00in /  0mm 25 W/m2
06:19 54.3 °F /  12.4 °C 49.8 °F /  9.9 °C 29.75in /  1007.3hPa WSW 4.1mph /  6.6km/h 9mph /  14.5km/h 85% 0.00in /  0mm 32 W/m2
06:24 54.3 °F /  12.4 °C 49.8 °F /  9.9 °C 29.76in /  1007.7hPa SW 5.3mph /  8.5km/h 10mph /  16.1km/h 84.8% 0.00in /  0mm 30 W/m2
06:29 54.5 °F /  12.5 °C 49.8 °F /  9.9 °C 29.75in /  1007.3hPa SW 4mph /  6.4km/h 7mph /  11.3km/h 84% 0.00in /  0mm 35 W/m2
06:34 54.6 °F /  12.6 °C 49.9 °F /  9.9 °C 29.76in /  1007.7hPa WSW 5mph /  8km/h 8mph /  12.9km/h 84% 0.00in /  0mm 46 W/m2
06:39 54.7 °F /  12.6 °C 50 °F /  10 °C 29.76in /  1007.7hPa WSW 3.6mph /  5.8km/h 9mph /  14.5km/h 84% 0.00in /  0mm 49 W/m2
06:44 54.8 °F /  12.7 °C 50.1 °F /  10.1 °C 29.76in /  1007.7hPa WSW 5mph /  8km/h 9mph /  14.5km/h 84% 0.00in /  0mm 42 W/m2
06:49 54.9 °F /  12.7 °C 50.2 °F /  10.1 °C 29.76in /  1007.7hPa WSW 5.4mph /  8.7km/h 9mph /  14.5km/h 84% 0.00in /  0mm 60 W/m2
06:54 54.9 °F /  12.7 °C 50.2 °F /  10.1 °C 29.75in /  1007.3hPa WSW 3.3mph /  5.3km/h 10mph /  16.1km/h 84% 0.00in /  0mm 60 W/m2
06:59 54.9 °F /  12.7 °C 50.2 °F /  10.1 °C 29.75in /  1007.3hPa SW 4.7mph /  7.6km/h 9mph /  14.5km/h 84% 0.00in /  0mm 54 W/m2
07:04 55 °F /  12.8 °C 50.4 °F /  10.2 °C 29.75in /  1007.3hPa SW 5.7mph /  9.2km/h 10mph /  16.1km/h 84% 0.00in /  0mm 76 W/m2
07:09 55 °F /  12.8 °C 50.4 °F /  10.2 °C 29.75in /  1007.3hPa SW 4.6mph /  7.4km/h 10mph /  16.1km/h 84% 0.00in /  0mm 81 W/m2
07:14 55.1 °F /  12.8 °C 50.5 °F /  10.3 °C 29.75in /  1007.3hPa SW 6.4mph /  10.3km/h 10mph /  16.1km/h 84% 0.00in /  0mm 93 W/m2
07:19 55.2 °F /  12.9 °C 50.5 °F /  10.3 °C 29.75in /  1007.3hPa SW 7.6mph /  12.2km/h 10mph /  16.1km/h 84% 0.00in /  0mm 107 W/m2
07:24 55.5 °F /  13.1 °C 50.8 °F /  10.4 °C 29.75in /  1007.3hPa SW 5.1mph /  8.2km/h 10mph /  16.1km/h 84% 0.00in /  0mm 91 W/m2
07:29 55.6 °F /  13.1 °C 50.5 °F /  10.3 °C 29.75in /  1007.3hPa SW 4.6mph /  7.4km/h 9mph /  14.5km/h 83% 0.00in /  0mm 72 W/m2
07:34 55.8 °F /  13.2 °C 50.9 °F /  10.5 °C 29.75in /  1007.3hPa SW 3.6mph /  5.8km/h 8mph /  12.9km/h 83.6% 0.00in /  0mm 93 W/m2
07:39 55.8 °F /  13.2 °C 50.7 °F /  10.4 °C 29.74in /  1007hPa WSW 6.3mph /  10.1km/h 10mph /  16.1km/h 83% 0.00in /  0mm 135 W/m2
07:44 55.8 °F /  13.2 °C 50.7 °F /  10.4 °C 29.74in /  1007hPa WSW 6.1mph /  9.8km/h 11mph /  17.7km/h 83% 0.00in /  0mm 207 W/m2
07:49 55.9 °F /  13.3 °C 50.8 °F /  10.4 °C 29.74in /  1007hPa SW 5.9mph /  9.5km/h 11mph /  17.7km/h 83% 0.00in /  0mm 206 W/m2
07:54 56.1 °F /  13.4 °C 50.9 °F /  10.5 °C 29.74in /  1007hPa WSW 4.4mph /  7.1km/h 9mph /  14.5km/h 82.6% 0.00in /  0mm 139 W/m2
07:59 56.3 °F /  13.5 °C 51.2 °F /  10.7 °C 29.74in /  1007hPa WSW 4mph /  6.4km/h 8mph /  12.9km/h 82.8% 0.00in /  0mm 113 W/m2
08:04 56.3 °F /  13.5 °C 50.9 °F /  10.5 °C 29.74in /  1007hPa WSW 5.8mph /  9.3km/h 11mph /  17.7km/h 82% 0.00in /  0mm 118 W/m2
08:09 56.2 °F /  13.4 °C 50.8 °F /  10.4 °C 29.74in /  1007hPa WSW 4.4mph /  7.1km/h 8mph /  12.9km/h 82% 0.00in /  0mm 93 W/m2
08:14 56.3 °F /  13.5 °C 50.9 °F /  10.5 °C 29.74in /  1007hPa WSW 3.6mph /  5.8km/h 8mph /  12.9km/h 82% 0.00in /  0mm 104 W/m2
08:19 56.4 °F /  13.6 °C 51 °F /  10.6 °C 29.74in /  1007hPa SW 4.4mph /  7.1km/h 8mph /  12.9km/h 82% 0.00in /  0mm 121 W/m2
08:24 56.5 °F /  13.6 °C 51.1 °F /  10.6 °C 29.74in /  1007hPa WSW 4.7mph /  7.6km/h 8mph /  12.9km/h 82% 0.00in /  0mm 165 W/m2
08:29 56.6 °F /  13.7 °C 51.2 °F /  10.7 °C 29.75in /  1007.3hPa WSW 5.7mph /  9.2km/h 9mph /  14.5km/h 82% 0.00in /  0mm 169 W/m2
08:34 56.7 °F /  13.7 °C 51.3 °F /  10.7 °C 29.75in /  1007.3hPa WSW 5.6mph /  9km/h 9mph /  14.5km/h 82% 0.00in /  0mm 172 W/m2
08:38 56.8 °F /  13.8 °C 51.4 °F /  10.8 °C 29.75in /  1007.3hPa West 3.2mph /  5.1km/h 7mph /  11.3km/h 82% 0.00in /  0mm 146 W/m2
08:44 57 °F /  13.9 °C 51.5 °F /  10.8 °C 29.75in /  1007.3hPa WSW 4.4mph /  7.1km/h 9mph /  14.5km/h 81.6% 0.00in /  0mm 146 W/m2
08:49 56.8 °F /  13.8 °C 51.1 °F /  10.6 °C 29.75in /  1007.3hPa WSW 4.9mph /  7.9km/h 8mph /  12.9km/h 81% 0.00in /  0mm 155 W/m2
08:54 56.8 °F /  13.8 °C 51.1 °F /  10.6 °C 29.75in /  1007.3hPa WSW 5.6mph /  9km/h 9mph /  14.5km/h 81% 0.00in /  0mm 163 W/m2
08:59 57 °F /  13.9 °C 51.3 °F /  10.7 °C 29.74in /  1007hPa WSW 5.2mph /  8.4km/h 9mph /  14.5km/h 81% 0.00in /  0mm 163 W/m2
09:04 57 °F /  13.9 °C 51.4 °F /  10.8 °C 29.74in /  1007hPa WSW 4.1mph /  6.6km/h 8mph /  12.9km/h 81.2% 0.00in /  0mm 176 W/m2
09:09 57 °F /  13.9 °C 51.4 °F /  10.8 °C 29.74in /  1007hPa WSW 5.4mph /  8.7km/h 9mph /  14.5km/h 81.2% 0.00in /  0mm 171 W/m2
09:14 57 °F /  13.9 °C 51.3 °F /  10.7 °C 29.74in /  1007hPa WSW 6.4mph /  10.3km/h 9mph /  14.5km/h 81% 0.00in /  0mm 163 W/m2
09:19 57 °F /  13.9 °C 51.3 °F /  10.7 °C 29.74in /  1007hPa WSW 5.3mph /  8.5km/h 10mph /  16.1km/h 81% 0.00in /  0mm 148 W/m2
09:24 57 °F /  13.9 °C 51.3 °F /  10.7 °C 29.74in /  1007hPa SW 4.7mph /  7.6km/h 10mph /  16.1km/h 81% 0.00in /  0mm 181 W/m2
09:29 57 °F /  13.9 °C 51.3 °F /  10.7 °C 29.74in /  1007hPa SW 3.5mph /  5.6km/h 10mph /  16.1km/h 81% 0.00in /  0mm 156 W/m2
09:34 57.3 °F /  14.1 °C 51.5 °F /  10.8 °C 29.74in /  1007hPa WSW 4.5mph /  7.2km/h 8mph /  12.9km/h 81% 0.00in /  0mm 146 W/m2
09:39 57.4 °F /  14.1 °C 51.6 °F /  10.9 °C 29.74in /  1007hPa SW 4.8mph /  7.7km/h 8mph /  12.9km/h 81% 0.00in /  0mm 176 W/m2
09:44 57.4 °F /  14.1 °C 51.4 °F /  10.8 °C 29.74in /  1007hPa SW 4.1mph /  6.6km/h 10mph /  16.1km/h 80.4% 0.00in /  0mm 171 W/m2
09:49 57.4 °F /  14.1 °C 51.2 °F /  10.7 °C 29.74in /  1007hPa SW 4.5mph /  7.2km/h 8mph /  12.9km/h 79.8% 0.00in /  0mm 220 W/m2
09:54 57.4 °F /  14.1 °C 50.5 °F /  10.3 °C 29.74in /  1007hPa SW 5.1mph /  8.2km/h 9mph /  14.5km/h 78% 0.00in /  0mm 220 W/m2
09:59 57.6 °F /  14.2 °C 50.1 °F /  10.1 °C 29.74in /  1007hPa SW 6.3mph /  10.1km/h 10mph /  16.1km/h 76.2% 0.00in /  0mm 281 W/m2
10:04 57.6 °F /  14.2 °C 49.6 °F /  9.8 °C 29.73in /  1006.7hPa SW 4.1mph /  6.6km/h 10mph /  16.1km/h 75% 0.00in /  0mm 294 W/m2
10:09 57.8 °F /  14.3 °C 49.8 °F /  9.9 °C 29.73in /  1006.7hPa WSW 6mph /  9.7km/h 9mph /  14.5km/h 74.6% 0.00in /  0mm 269 W/m2
10:14 58 °F /  14.4 °C 49.4 °F /  9.7 °C 29.73in /  1006.7hPa WSW 4.8mph /  7.7km/h 10mph /  16.1km/h 73.2% 0.00in /  0mm 258 W/m2
10:19 57.9 °F /  14.4 °C 49.5 °F /  9.7 °C 29.74in /  1007hPa SW 6.1mph /  9.8km/h 11mph /  17.7km/h 73.6% 0.00in /  0mm 188 W/m2
10:23 57.9 °F /  14.4 °C 49.8 °F /  9.9 °C 29.74in /  1007hPa WSW 5.2mph /  8.4km/h 9mph /  14.5km/h 74.5% 0.00in /  0mm 243 W/m2
10:29 57.9 °F /  14.4 °C 50 °F /  10 °C 29.74in /  1007hPa WSW 6.5mph /  10.5km/h 12mph /  19.3km/h 75% 0.00in /  0mm 403 W/m2
10:34 58 °F /  14.4 °C 50.1 °F /  10.1 °C 29.74in /  1007hPa WSW 4.4mph /  7.1km/h 11mph /  17.7km/h 75% 0.00in /  0mm 311 W/m2
10:39 58.3 °F /  14.6 °C 50.4 °F /  10.2 °C 29.74in /  1007hPa West 6.3mph /  10.1km/h 11mph /  17.7km/h 75% 0.00in /  0mm 285 W/m2
10:44 58 °F /  14.4 °C 50.4 °F /  10.2 °C 29.73in /  1006.7hPa West 3.7mph /  6km/h 11mph /  17.7km/h 75.8% 0.00in /  0mm 169 W/m2
10:49 58.1 °F /  14.5 °C 50.8 °F /  10.4 °C 29.74in /  1007hPa SW 5mph /  8km/h 9mph /  14.5km/h 76.6% 0.00in /  0mm 181 W/m2
10:54 58.2 °F /  14.6 °C 50.9 °F /  10.5 °C 29.73in /  1006.7hPa WSW 5.5mph /  8.9km/h 10mph /  16.1km/h 76.8% 0.00in /  0mm 323 W/m2
10:58 58.6 °F /  14.8 °C 51.4 °F /  10.8 °C 29.73in /  1006.7hPa West 4.8mph /  7.7km/h 9mph /  14.5km/h 77% 0.00in /  0mm 420 W/m2
11:04 59 °F /  15 °C 51.6 °F /  10.9 °C 29.73in /  1006.7hPa West 6.2mph /  10km/h 12mph /  19.3km/h 76.4% 0.00in /  0mm 422 W/m2
11:09 58.8 °F /  14.9 °C 51.3 °F /  10.7 °C 29.73in /  1006.7hPa West 4.6mph /  7.4km/h 11mph /  17.7km/h 76.2% 0.00in /  0mm 429 W/m2
11:14 58.7 °F /  14.8 °C 51.5 °F /  10.8 °C 29.73in /  1006.7hPa WSW 7mph /  11.3km/h 12mph /  19.3km/h 77% 0.00in /  0mm 216 W/m2
11:19 58.8 °F /  14.9 °C 52 °F /  11.1 °C 29.73in /  1006.7hPa SW 5.8mph /  9.3km/h 10mph /  16.1km/h 78% 0.00in /  0mm 151 W/m2
11:24 58.6 °F /  14.8 °C 52.2 °F /  11.2 °C 29.73in /  1006.7hPa SW 4mph /  6.4km/h 9mph /  14.5km/h 79.2% 0.00in /  0mm 135 W/m2
11:29 58.6 °F /  14.8 °C 52.6 °F /  11.4 °C 29.73in /  1006.7hPa SW 3.2mph /  5.1km/h 7mph /  11.3km/h 80.2% 0.00in /  0mm 204 W/m2
11:34 58.5 °F /  14.7 °C 52.8 °F /  11.6 °C 29.73in /  1006.7hPa WSW 6mph /  9.7km/h 10mph /  16.1km/h 81% 0.00in /  0mm 258 W/m2
11:39 58.5 °F /  14.7 °C 52.8 °F /  11.6 °C 29.73in /  1006.7hPa SW 4.1mph /  6.6km/h 7mph /  11.3km/h 81% 0.00in /  0mm 269 W/m2
11:44 58.6 °F /  14.8 °C 52.9 °F /  11.6 °C 29.73in /  1006.7hPa WSW 4mph /  6.4km/h 9mph /  14.5km/h 81% 0.00in /  0mm 269 W/m2
11:49 58.6 °F /  14.8 °C 52.6 °F /  11.4 °C 29.72in /  1006.3hPa SW 7mph /  11.3km/h 12mph /  19.3km/h 80.2% 0.00in /  0mm 302 W/m2
11:54 58.6 °F /  14.8 °C 52.3 °F /  11.3 °C 29.72in /  1006.3hPa SW 4.7mph /  7.6km/h 12mph /  19.3km/h 79.2% 0.00in /  0mm 279 W/m2
11:59 58.7 °F /  14.8 °C 52.6 °F /  11.4 °C 29.73in /  1006.7hPa WSW 4.7mph /  7.6km/h 8mph /  12.9km/h 80% 0.00in /  0mm 218 W/m2
12:04 58.7 °F /  14.8 °C 52.6 °F /  11.4 °C 29.73in /  1006.7hPa WSW 4mph /  6.4km/h 9mph /  14.5km/h 80% 0.00in /  0mm 227 W/m2
12:09 58.8 °F /  14.9 °C 52.9 °F /  11.6 °C 29.73in /  1006.7hPa SW 2.8mph /  4.5km/h 8mph /  12.9km/h 80.4% 0.00in /  0mm 216 W/m2
12:14 58.9 °F /  14.9 °C 53.2 °F /  11.8 °C 29.73in /  1006.7hPa SW 4.6mph /  7.4km/h 11mph /  17.7km/h 81% 0.00in /  0mm 236 W/m2
12:19 58.7 °F /  14.8 °C 53 °F /  11.7 °C 29.72in /  1006.3hPa WSW 7mph /  11.3km/h 10mph /  16.1km/h 81% 0.00in /  0mm 232 W/m2
12:24 58.7 °F /  14.8 °C 53.2 °F /  11.8 °C 29.72in /  1006.3hPa WSW 3.6mph /  5.8km/h 10mph /  16.1km/h 81.6% 0.00in /  0mm 260 W/m2
12:29 59.2 °F /  15.1 °C 53.7 °F /  12.1 °C 29.72in /  1006.3hPa SSW 3.9mph /  6.3km/h 7mph /  11.3km/h 82% 0.00in /  0mm 294 W/m2
12:34 59.4 °F /  15.2 °C 53.9 °F /  12.2 °C 29.72in /  1006.3hPa WSW 4.4mph /  7.1km/h 9mph /  14.5km/h 82% 0.00in /  0mm 392 W/m2
12:39 59.8 °F /  15.4 °C 54.1 °F /  12.3 °C 29.72in /  1006.3hPa SW 3.7mph /  6km/h 9mph /  14.5km/h 81.5% 0.00in /  0mm 397 W/m2
12:44 60.3 °F /  15.7 °C 54.4 °F /  12.4 °C 29.72in /  1006.3hPa SW 3.3mph /  5.3km/h 8mph /  12.9km/h 81% 0.00in /  0mm 387 W/m2
12:49 60.4 °F /  15.8 °C 54.5 °F /  12.5 °C 29.72in /  1006.3hPa SSW 3.7mph /  6km/h 8mph /  12.9km/h 81% 0.00in /  0mm 209 W/m2
12:54 60.3 °F /  15.7 °C 54.3 °F /  12.4 °C 29.72in /  1006.3hPa SW 4.1mph /  6.6km/h 6mph /  9.7km/h 81% 0.00in /  0mm 163 W/m2
12:59 60.4 °F /  15.8 °C 54.5 °F /  12.5 °C 29.72in /  1006.3hPa SW 2.4mph /  3.9km/h 4mph /  6.4km/h 81% 0.00in /  0mm 200 W/m2
13:04 60.6 °F /  15.9 °C 54.7 °F /  12.6 °C 29.72in /  1006.3hPa South 4.1mph /  6.6km/h 9mph /  14.5km/h 81% 0.00in /  0mm 253 W/m2
13:09 60.8 °F /  16 °C 54.9 °F /  12.7 °C 29.72in /  1006.3hPa SW 4.1mph /  6.6km/h 7mph /  11.3km/h 81% 0.00in /  0mm 257 W/m2
13:14 60.6 °F /  15.9 °C 54.7 °F /  12.6 °C 29.72in /  1006.3hPa SSW 5.2mph /  8.4km/h 7mph /  11.3km/h 81% 0.00in /  0mm 149 W/m2
13:19 60.6 °F /  15.9 °C 54.9 °F /  12.7 °C 29.71in /  1006hPa SSW 4.8mph /  7.7km/h 7mph /  11.3km/h 81.8% 0.00in /  0mm 127 W/m2
13:24 60.6 °F /  15.9 °C 55 °F /  12.8 °C 29.71in /  1006hPa SSW 2.8mph /  4.5km/h 7mph /  11.3km/h 82% 0.00in /  0mm 148 W/m2
13:29 60.9 °F /  16.1 °C 55.3 °F /  12.9 °C 29.71in /  1006hPa SSW 2.3mph /  3.7km/h 5mph /  8km/h 82% 0.00in /  0mm 132 W/m2
13:34 61.1 °F /  16.2 °C 55.5 °F /  13.1 °C 29.71in /  1006hPa SSW 2.1mph /  3.4km/h 6mph /  9.7km/h 82% 0.00in /  0mm 132 W/m2
13:39 61.3 °F /  16.3 °C 55.7 °F /  13.2 °C 29.71in /  1006hPa SSW 3.7mph /  6km/h 6mph /  9.7km/h 82% 0.00in /  0mm 236 W/m2
13:44 61.4 °F /  16.3 °C 55.8 °F /  13.2 °C 29.70in /  1005.6hPa SW 2.5mph /  4km/h 6mph /  9.7km/h 82% 0.00in /  0mm 246 W/m2
13:49 61.6 °F /  16.4 °C 56 °F /  13.3 °C 29.70in /  1005.6hPa SSW 6.2mph /  10km/h 10mph /  16.1km/h 82% 0.00in /  0mm 244 W/m2
13:54 61.8 °F /  16.6 °C 56.2 °F /  13.4 °C 29.70in /  1005.6hPa SW 5.8mph /  9.3km/h 10mph /  16.1km/h 82% 0.00in /  0mm 359 W/m2
13:59 61.9 °F /  16.6 °C 56.3 °F /  13.5 °C 29.70in /  1005.6hPa SW 4.4mph /  7.1km/h 10mph /  16.1km/h 82% 0.00in /  0mm 309 W/m2
14:04 62.2 °F /  16.8 °C 56.7 °F /  13.7 °C 29.70in /  1005.6hPa SSW 5mph /  8km/h 10mph /  16.1km/h 82% 0.00in /  0mm 316 W/m2
14:09 62.4 °F /  16.9 °C 56.5 °F /  13.6 °C 29.70in /  1005.6hPa SW 4mph /  6.4km/h 11mph /  17.7km/h 81% 0.00in /  0mm 265 W/m2
14:14 62.4 °F /  16.9 °C 56.5 °F /  13.6 °C 29.70in /  1005.6hPa WSW 5.8mph /  9.3km/h 11mph /  17.7km/h 81% 0.00in /  0mm 244 W/m2
14:19 62.4 °F /  16.9 °C 56.5 °F /  13.6 °C 29.70in /  1005.6hPa WSW 5.7mph /  9.2km/h 12mph /  19.3km/h 81% 0.00in /  0mm 264 W/m2
14:24 62.4 °F /  16.9 °C 56.5 °F /  13.6 °C 29.70in /  1005.6hPa SSW 5.2mph /  8.4km/h 13mph /  20.9km/h 81% 0.00in /  0mm 223 W/m2
14:29 62.7 °F /  17.1 °C 56.7 °F /  13.7 °C 29.70in /  1005.6hPa SW 4.9mph /  7.9km/h 9mph /  14.5km/h 81% 0.00in /  0mm 216 W/m2
14:33 62.8 °F /  17.1 °C 56.8 °F /  13.8 °C 29.70in /  1005.6hPa SW 5mph /  8km/h 8mph /  12.9km/h 81% 0.00in /  0mm 250 W/m2
14:39 63 °F /  17.2 °C 57 °F /  13.9 °C 29.70in /  1005.6hPa SSW 4.6mph /  7.4km/h 11mph /  17.7km/h 81% 0.00in /  0mm 276 W/m2
14:44 63 °F /  17.2 °C 57.1 °F /  13.9 °C 29.70in /  1005.6hPa SW 8.6mph /  13.8km/h 12mph /  19.3km/h 81.2% 0.00in /  0mm 308 W/m2
14:49 63.1 °F /  17.3 °C 57.3 °F /  14.1 °C 29.70in /  1005.6hPa SW 2.9mph /  4.7km/h 11mph /  17.7km/h 81.2% 0.00in /  0mm 294 W/m2
14:54 63.5 °F /  17.5 °C 57.6 °F /  14.2 °C 29.69in /  1005.3hPa SSW 4.9mph /  7.9km/h 12mph /  19.3km/h 81% 0.00in /  0mm 292 W/m2
14:59 63.3 °F /  17.4 °C 57.4 °F /  14.1 °C 29.70in /  1005.6hPa SW 6.2mph /  10km/h 10mph /  16.1km/h 81% 0.00in /  0mm 260 W/m2
15:04 63.6 °F /  17.6 °C 57.9 °F /  14.4 °C 29.70in /  1005.6hPa WSW 4.4mph /  7.1km/h 10mph /  16.1km/h 81.8% 0.00in /  0mm 313 W/m2
15:09 63.7 °F /  17.6 °C 57.8 °F /  14.3 °C 29.70in /  1005.6hPa SW 4.9mph /  7.9km/h 11mph /  17.7km/h 81.2% 0.00in /  0mm 519 W/m2
15:14 63.9 °F /  17.7 °C 58.1 °F /  14.5 °C 29.70in /  1005.6hPa SW 6.8mph /  10.9km/h 13mph /  20.9km/h 81.4% 0.00in /  0mm 652 W/m2
15:19 64.6 °F /  18.1 °C 58.6 °F /  14.8 °C 29.69in /  1005.3hPa SW 7.2mph /  11.6km/h 10mph /  16.1km/h 81% 0.00in /  0mm 580 W/m2
15:24 65 °F /  18.3 °C 58.7 °F /  14.8 °C 29.69in /  1005.3hPa SW 6mph /  9.7km/h 11mph /  17.7km/h 80% 0.00in /  0mm 636 W/m2
15:29 65.5 °F /  18.6 °C 59 °F /  15 °C 29.69in /  1005.3hPa SW 5.2mph /  8.4km/h 9mph /  14.5km/h 79.6% 0.00in /  0mm 796 W/m2
15:34 66 °F /  18.9 °C 59.3 °F /  15.2 °C 29.68in /  1005hPa WSW 5.8mph /  9.3km/h 10mph /  16.1km/h 78.8% 0.00in /  0mm 686 W/m2
15:39 66.5 °F /  19.2 °C 59.4 °F /  15.2 °C 29.68in /  1005hPa WSW 6.4mph /  10.3km/h 10mph /  16.1km/h 77.8% 0.00in /  0mm 517 W/m2
15:44 67.1 °F /  19.5 °C 59.6 °F /  15.3 °C 29.68in /  1005hPa WSW 6.2mph /  10km/h 13mph /  20.9km/h 76.8% 0.00in /  0mm 638 W/m2
15:49 67 °F /  19.4 °C 59.2 °F /  15.1 °C 29.68in /  1005hPa SW 7.2mph /  11.6km/h 13mph /  20.9km/h 75.8% 0.00in /  0mm 638 W/m2
15:54 66.6 °F /  19.2 °C 58.8 °F /  14.9 °C 29.68in /  1005hPa SW 6.4mph /  10.3km/h 15mph /  24.1km/h 75.8% 0.00in /  0mm 301 W/m2
15:59 66 °F /  18.9 °C 58.6 °F /  14.8 °C 29.68in /  1005hPa SW 6.6mph /  10.6km/h 13mph /  20.9km/h 77% 0.00in /  0mm 223 W/m2
16:04 65.6 °F /  18.7 °C 58.5 °F /  14.7 °C 29.68in /  1005hPa WSW 6.2mph /  10km/h 13mph /  20.9km/h 77.8% 0.00in /  0mm 188 W/m2
16:09 65.1 °F /  18.4 °C 58.5 °F /  14.7 °C 29.68in /  1005hPa WSW 7.2mph /  11.6km/h 13mph /  20.9km/h 79% 0.00in /  0mm 237 W/m2
16:13 65.1 °F /  18.4 °C 58.5 °F /  14.7 °C 29.68in /  1005hPa SW 5.8mph /  9.3km/h 12mph /  19.3km/h 79.3% 0.00in /  0mm 197 W/m2
16:19 65.5 °F /  18.6 °C 59.2 °F /  15.1 °C 29.67in /  1004.6hPa WSW 5.1mph /  8.2km/h 10mph /  16.1km/h 79.8% 0.00in /  0mm 341 W/m2
16:24 65.7 °F /  18.7 °C 59 °F /  15 °C 29.67in /  1004.6hPa SW 6.8mph /  10.9km/h 12mph /  19.3km/h 79% 0.00in /  0mm 306 W/m2
16:29 65.8 °F /  18.8 °C 59.1 °F /  15.1 °C 29.67in /  1004.6hPa SW 5.9mph /  9.5km/h 10mph /  16.1km/h 79% 0.00in /  0mm 272 W/m2
16:34 65.9 °F /  18.8 °C 59.4 °F /  15.2 °C 29.67in /  1004.6hPa SW 4.8mph /  7.7km/h 10mph /  16.1km/h 79.4% 0.00in /  0mm 271 W/m2
16:39 66.3 °F /  19.1 °C 59.7 °F /  15.4 °C 29.67in /  1004.6hPa WSW 4.9mph /  7.9km/h 10mph /  16.1km/h 79.2% 0.00in /  0mm 255 W/m2
16:44 66.5 °F /  19.2 °C 59.8 °F /  15.4 °C 29.67in /  1004.6hPa WSW 5mph /  8km/h 10mph /  16.1km/h 79% 0.00in /  0mm 318 W/m2
16:49 66.6 °F /  19.2 °C 59.8 °F /  15.4 °C 29.67in /  1004.6hPa WSW 4.6mph /  7.4km/h 9mph /  14.5km/h 78.6% 0.00in /  0mm 260 W/m2
16:54 66.6 °F /  19.2 °C 59.6 °F /  15.3 °C 29.67in /  1004.6hPa West 5.8mph /  9.3km/h 11mph /  17.7km/h 78% 0.00in /  0mm 169 W/m2
16:59 66.5 °F /  19.2 °C 59.5 °F /  15.3 °C 29.67in /  1004.6hPa SW 4.9mph /  7.9km/h 14mph /  22.5km/h 78% 0.00in /  0mm 134 W/m2
17:04 66.6 °F /  19.2 °C 59.5 °F /  15.3 °C 29.67in /  1004.6hPa WSW 6.8mph /  10.9km/h 11mph /  17.7km/h 78% 0.00in /  0mm 88 W/m2
17:09 66.1 °F /  18.9 °C 59.4 °F /  15.2 °C 29.67in /  1004.6hPa WSW 4.7mph /  7.6km/h 11mph /  17.7km/h 78.8% 0.00in /  0mm 58 W/m2
17:14 65.6 °F /  18.7 °C 59.5 °F /  15.3 °C 29.67in /  1004.6hPa West 6.3mph /  10.1km/h 9mph /  14.5km/h 80.6% 0.00in /  0mm 102 W/m2
17:19 64.8 °F /  18.2 °C 59.2 °F /  15.1 °C 29.67in /  1004.6hPa WSW 7.6mph /  12.2km/h 17mph /  27.4km/h 81.8% 0.00in /  0mm 214 W/m2
17:24 64.2 °F /  17.9 °C 58.8 °F /  14.9 °C 29.67in /  1004.6hPa West 6.7mph /  10.8km/h 12mph /  19.3km/h 82.4% 0.00in /  0mm 360 W/m2
17:29 64.5 °F /  18.1 °C 59.3 °F /  15.2 °C 29.67in /  1004.6hPa WSW 5.1mph /  8.2km/h 11mph /  17.7km/h 83% 0.00in /  0mm 360 W/m2
17:34 64.8 °F /  18.2 °C 59.3 °F /  15.2 °C 29.67in /  1004.6hPa WNW 5.6mph /  9km/h 10mph /  16.1km/h 82.2% 0.00in /  0mm 258 W/m2
17:39 65 °F /  18.3 °C 59.4 °F /  15.2 °C 29.67in /  1004.6hPa West 4.6mph /  7.4km/h 11mph /  17.7km/h 81.8% 0.00in /  0mm 279 W/m2
17:44 65.1 °F /  18.4 °C 59.2 °F /  15.1 °C 29.67in /  1004.6hPa West 6.6mph /  10.6km/h 12mph /  19.3km/h 80.8% 0.00in /  0mm 315 W/m2
17:49 65.1 °F /  18.4 °C 58.8 °F /  14.9 °C 29.67in /  1004.6hPa West 7mph /  11.3km/h 11mph /  17.7km/h 80% 0.00in /  0mm 504 W/m2
17:54 65.7 °F /  18.7 °C 59.4 °F /  15.2 °C 29.67in /  1004.6hPa West 5.3mph /  8.5km/h 9mph /  14.5km/h 80% 0.00in /  0mm 362 W/m2
17:59 65.7 °F /  18.7 °C 59.1 °F /  15.1 °C 29.66in /  1004.3hPa WNW 5.6mph /  9km/h 10mph /  16.1km/h 79.2% 0.00in /  0mm 322 W/m2
18:03 65.5 °F /  18.6 °C 58.8 °F /  14.9 °C 29.67in /  1004.6hPa WNW 5.8mph /  9.3km/h 11mph /  17.7km/h 79% 0.00in /  0mm 278 W/m2
18:09 65.4 °F /  18.6 °C 58.7 °F /  14.8 °C 29.67in /  1004.6hPa WNW 5.6mph /  9km/h 10mph /  16.1km/h 79% 0.00in /  0mm 250 W/m2
18:14 65.4 °F /  18.6 °C 58.9 °F /  14.9 °C 29.67in /  1004.6hPa WNW 5.6mph /  9km/h 11mph /  17.7km/h 79.6% 0.00in /  0mm 232 W/m2
18:19 64.9 °F /  18.3 °C 58.7 °F /  14.8 °C 29.67in /  1004.6hPa WNW 7mph /  11.3km/h 11mph /  17.7km/h 80.2% 0.00in /  0mm 204 W/m2
18:24 64.6 °F /  18.1 °C 58.6 °F /  14.8 °C 29.67in /  1004.6hPa WNW 5mph /  8km/h 9mph /  14.5km/h 81% 0.00in /  0mm 165 W/m2
18:29 64.4 °F /  18 °C 58.7 °F /  14.8 °C 29.67in /  1004.6hPa WNW 5mph /  8km/h 9mph /  14.5km/h 81.8% 0.00in /  0mm 176 W/m2
18:34 64 °F /  17.8 °C 58.5 °F /  14.7 °C 29.67in /  1004.6hPa WNW 6.5mph /  10.5km/h 11mph /  17.7km/h 82.2% 0.00in /  0mm 237 W/m2
18:39 63.8 °F /  17.7 °C 58.5 °F /  14.7 °C 29.67in /  1004.6hPa WNW 4mph /  6.4km/h 11mph /  17.7km/h 82.8% 0.00in /  0mm 146 W/m2
18:44 63.4 °F /  17.4 °C 58.3 °F /  14.6 °C 29.67in /  1004.6hPa WNW 6mph /  9.7km/h 10mph /  16.1km/h 83.2% 0.00in /  0mm 142 W/m2
18:49 63.3 °F /  17.4 °C 58.5 °F /  14.7 °C 29.67in /  1004.6hPa WNW 4.5mph /  7.2km/h 10mph /  16.1km/h 84% 0.00in /  0mm 95 W/m2
18:54 63.1 °F /  17.3 °C 58.2 °F /  14.6 °C 29.67in /  1004.6hPa WNW 5.3mph /  8.5km/h 10mph /  16.1km/h 84% 0.00in /  0mm 81 W/m2
18:59 62.9 °F /  17.2 °C 58 °F /  14.4 °C 29.67in /  1004.6hPa WNW 7.2mph /  11.6km/h 11mph /  17.7km/h 84% 0.00in /  0mm 148 W/m2
19:04 63 °F /  17.2 °C 58.4 °F /  14.7 °C 29.67in /  1004.6hPa West 5.1mph /  8.2km/h 11mph /  17.7km/h 84.8% 0.00in /  0mm 290 W/m2
19:09 63.2 °F /  17.3 °C 58.5 °F /  14.7 °C 29.67in /  1004.6hPa West 4.9mph /  7.9km/h 7mph /  11.3km/h 84.4% 0.00in /  0mm 272 W/m2
19:14 63.3 °F /  17.4 °C 58.5 °F /  14.7 °C 29.67in /  1004.6hPa West 5.4mph /  8.7km/h 9mph /  14.5km/h 84% 0.00in /  0mm 178 W/m2
19:19 63.5 °F /  17.5 °C 58.6 °F /  14.8 °C 29.67in /  1004.6hPa West 3.7mph /  6km/h 9mph /  14.5km/h 84% 0.00in /  0mm 214 W/m2
19:24 63.5 °F /  17.5 °C 58.6 °F /  14.8 °C 29.67in /  1004.6hPa WNW 5.2mph /  8.4km/h 10mph /  16.1km/h 84% 0.00in /  0mm 209 W/m2
19:29 63.3 °F /  17.4 °C 58.5 °F /  14.7 °C 29.66in /  1004.3hPa WNW 7.6mph /  12.2km/h 11mph /  17.7km/h 84% 0.00in /  0mm 234 W/m2
19:34 63.1 °F /  17.3 °C 58.1 °F /  14.5 °C 29.66in /  1004.3hPa West 6.2mph /  10km/h 12mph /  19.3km/h 83.6% 0.00in /  0mm 207 W/m2
19:39 63.1 °F /  17.3 °C 58.2 °F /  14.6 °C 29.66in /  1004.3hPa WNW 8.9mph /  14.3km/h 9mph /  14.5km/h 84% 0.00in /  0mm 109 W/m2
19:44 62.8 °F /  17.1 °C 57.9 °F /  14.4 °C 29.66in /  1004.3hPa WNW 5.4mph /  8.7km/h 11mph /  17.7km/h 84% 0.00in /  0mm 98 W/m2
19:49 62.6 °F /  17 °C 57.8 °F /  14.3 °C 29.66in /  1004.3hPa WNW 6mph /  9.7km/h 12mph /  19.3km/h 84% 0.00in /  0mm 139 W/m2
19:54 62.5 °F /  16.9 °C 57.6 °F /  14.2 °C 29.66in /  1004.3hPa West 5.3mph /  8.5km/h 10mph /  16.1km/h 84% 0.00in /  0mm 116 W/m2
19:59 62.4 °F /  16.9 °C 57.6 °F /  14.2 °C 29.66in /  1004.3hPa West 4.5mph /  7.2km/h 10mph /  16.1km/h 84% 0.00in /  0mm 151 W/m2
20:04 62.4 °F /  16.9 °C 57.6 °F /  14.2 °C 29.66in /  1004.3hPa West 5.3mph /  8.5km/h 10mph /  16.1km/h 84% 0.00in /  0mm 174 W/m2
20:09 62.4 °F /  16.9 °C 57.6 °F /  14.2 °C 29.66in /  1004.3hPa West 5mph /  8km/h 10mph /  16.1km/h 84% 0.00in /  0mm 86 W/m2
20:14 62.2 °F /  16.8 °C 57.4 °F /  14.1 °C 29.66in /  1004.3hPa West 4.4mph /  7.1km/h 7mph /  11.3km/h 84% 0.00in /  0mm 88 W/m2
20:19 62.2 °F /  16.8 °C 57.5 °F /  14.2 °C 29.66in /  1004.3hPa West 4.1mph /  6.6km/h 6mph /  9.7km/h 84.4% 0.00in /  0mm 81 W/m2
20:24 62.2 °F /  16.8 °C 57.7 °F /  14.3 °C 29.66in /  1004.3hPa West 3.7mph /  6km/h 6mph /  9.7km/h 85% 0.00in /  0mm 77 W/m2
20:28 62.2 °F /  16.8 °C 57.7 °F /  14.3 °C 29.66in /  1004.3hPa West 3mph /  4.8km/h 4mph /  6.4km/h 85% 0.00in /  0mm 90 W/m2
20:34 62.2 °F /  16.8 °C 57.7 °F /  14.3 °C 29.66in /  1004.3hPa WSW 2.9mph /  4.7km/h 7mph /  11.3km/h 85% 0.00in /  0mm 72 W/m2
20:39 62.2 °F /  16.8 °C 57.6 °F /  14.2 °C 29.66in /  1004.3hPa WSW 3.3mph /  5.3km/h 5mph /  8km/h 84.8% 0.00in /  0mm 69 W/m2
20:44 62.2 °F /  16.8 °C 57.7 °F /  14.3 °C 29.66in /  1004.3hPa WSW 3.2mph /  5.1km/h 5mph /  8km/h 85% 0.00in /  0mm 58 W/m2
20:49 62.2 °F /  16.8 °C 57.7 °F /  14.3 °C 29.66in /  1004.3hPa WSW 2.8mph /  4.5km/h 6mph /  9.7km/h 85% 0.00in /  0mm 47 W/m2
20:54 62.2 °F /  16.8 °C 57.7 °F /  14.3 °C 29.66in /  1004.3hPa WSW 3mph /  4.8km/h 5mph /  8km/h 85% 0.00in /  0mm 35 W/m2
20:59 62.1 °F /  16.7 °C 57.6 °F /  14.2 °C 29.66in /  1004.3hPa WSW 2.6mph /  4.2km/h 5mph /  8km/h 84.8% 0.00in /  0mm 35 W/m2
21:04 62.1 °F /  16.7 °C 57.3 °F /  14.1 °C 29.66in /  1004.3hPa WSW 2.8mph /  4.5km/h 5mph /  8km/h 84% 0.00in /  0mm 37 W/m2
21:09 62.1 °F /  16.7 °C 57.2 °F /  14 °C 29.66in /  1004.3hPa WSW 3.5mph /  5.6km/h 5mph /  8km/h 84% 0.00in /  0mm 35 W/m2
21:14 62.1 °F /  16.7 °C 57.2 °F /  14 °C 29.66in /  1004.3hPa WSW 2.5mph /  4km/h 5mph /  8km/h 84% 0.00in /  0mm 30 W/m2
21:19 61.9 °F /  16.6 °C 57 °F /  13.9 °C 29.66in /  1004.3hPa WSW 3.8mph /  6.1km/h 6mph /  9.7km/h 84% 0.00in /  0mm 21 W/m2
21:24 61.9 °F /  16.6 °C 57 °F /  13.9 °C 29.66in /  1004.3hPa WSW 1.7mph /  2.7km/h 5mph /  8km/h 84% 0.00in /  0mm 16 W/m2
21:29 61.8 °F /  16.6 °C 56.9 °F /  13.8 °C 29.66in /  1004.3hPa West 2mph /  3.2km/h 6mph /  9.7km/h 84% 0.00in /  0mm 11 W/m2
21:34 61.6 °F /  16.4 °C 56.7 °F /  13.7 °C 29.66in /  1004.3hPa WNW 3.9mph /  6.3km/h 7mph /  11.3km/h 84% 0.00in /  0mm 5 W/m2
21:39 61.5 °F /  16.4 °C 56.7 °F /  13.7 °C 29.66in /  1004.3hPa West 4.5mph /  7.2km/h 7mph /  11.3km/h 84% 0.00in /  0mm 0 W/m2
21:44 61.5 °F /  16.4 °C 56.7 °F /  13.7 °C 29.66in /  1004.3hPa West 2.4mph /  3.9km/h 6mph /  9.7km/h 84% 0.00in /  0mm 0 W/m2
21:54 61.4 °F /  16.3 °C 56.6 °F /  13.7 °C 29.66in /  1004.3hPa West 3mph /  4.8km/h 5mph /  8km/h 84% 0.00in /  0mm 0 W/m2
21:59 61.3 °F /  16.3 °C 56.5 °F /  13.6 °C 29.66in /  1004.3hPa West 3.1mph /  5km/h 5mph /  8km/h 84% 0.00in /  0mm 0 W/m2
22:04 61.2 °F /  16.2 °C 56.5 °F /  13.6 °C 29.66in /  1004.3hPa West 2.7mph /  4.3km/h 5mph /  8km/h 84.6% 0.00in /  0mm 0 W/m2
22:09 61.2 °F /  16.2 °C 56.7 °F /  13.7 °C 29.66in /  1004.3hPa West 2.8mph /  4.5km/h 5mph /  8km/h 85% 0.00in /  0mm 0 W/m2
22:19 61.2 °F /  16.2 °C 56.7 °F /  13.7 °C 29.66in /  1004.3hPa West 1.5mph /  2.4km/h 4mph /  6.4km/h 85% 0.00in /  0mm 0 W/m2
22:24 61.1 °F /  16.2 °C 56.6 °F /  13.7 °C 29.66in /  1004.3hPa WNW 1.7mph /  2.7km/h 6mph /  9.7km/h 85% 0.00in /  0mm 0 W/m2
22:29 61 °F /  16.1 °C 56.5 °F /  13.6 °C 29.66in /  1004.3hPa West 3.2mph /  5.1km/h 7mph /  11.3km/h 85% 0.00in /  0mm 0 W/m2
22:34 61 °F /  16.1 °C 56.5 °F /  13.6 °C 29.66in /  1004.3hPa WNW 1.9mph /  3.1km/h 5mph /  8km/h 85% 0.00in /  0mm 0 W/m2
22:39 61 °F /  16.1 °C 56.5 °F /  13.6 °C 29.66in /  1004.3hPa WNW 1.6mph /  2.6km/h 3mph /  4.8km/h 85% 0.00in /  0mm 0 W/m2
22:44 61 °F /  16.1 °C 56.5 °F /  13.6 °C 29.66in /  1004.3hPa West 2.4mph /  3.9km/h 4mph /  6.4km/h 85% 0.00in /  0mm 0 W/m2
22:48 61 °F /  16.1 °C 56.5 °F /  13.6 °C 29.66in /  1004.3hPa West 2mph /  3.2km/h 4mph /  6.4km/h 85% 0.00in /  0mm 0 W/m2
22:54 61 °F /  16.1 °C 56.5 °F /  13.6 °C 29.66in /  1004.3hPa West 1.6mph /  2.6km/h 3mph /  4.8km/h 85% 0.00in /  0mm 0 W/m2
22:59 60.8 °F /  16 °C 56.3 °F /  13.5 °C 29.66in /  1004.3hPa West 2.4mph /  3.9km/h 5mph /  8km/h 85% 0.00in /  0mm 0 W/m2
23:04 60.7 °F /  15.9 °C 56.2 °F /  13.4 °C 29.66in /  1004.3hPa West 2.4mph /  3.9km/h 4mph /  6.4km/h 85% 0.00in /  0mm 0 W/m2
23:09 60.6 °F /  15.9 °C 56.1 °F /  13.4 °C 29.66in /  1004.3hPa West 1.2mph /  1.9km/h 4mph /  6.4km/h 85% 0.00in /  0mm 0 W/m2
23:14 60.6 °F /  15.9 °C 56.1 °F /  13.4 °C 29.66in /  1004.3hPa West 2.2mph /  3.5km/h 4mph /  6.4km/h 85% 0.00in /  0mm 0 W/m2
23:19 60.6 °F /  15.9 °C 56.1 °F /  13.4 °C 29.66in /  1004.3hPa West 3.4mph /  5.5km/h 7mph /  11.3km/h 85% 0.00in /  0mm 0 W/m2
23:23 60.6 °F /  15.9 °C 56.2 °F /  13.4 °C 29.67in /  1004.6hPa West 2.2mph /  3.5km/h 6mph /  9.7km/h 85.3% 0.00in /  0mm 0 W/m2
23:29 60.4 °F /  15.8 °C 56.3 °F /  13.5 °C 29.67in /  1004.6hPa West 1.6mph /  2.6km/h 5mph /  8km/h 86% 0.00in /  0mm 0 W/m2
23:34 60.4 °F /  15.8 °C 56.3 °F /  13.5 °C 29.66in /  1004.3hPa WSW 2.5mph /  4km/h 4mph /  6.4km/h 86% 0.00in /  0mm 0 W/m2
23:39 60.4 °F /  15.8 °C 56.2 °F /  13.4 °C 29.66in /  1004.3hPa West 2.8mph /  4.5km/h 5mph /  8km/h 86% 0.00in /  0mm 0 W/m2
23:44 60.3 °F /  15.7 °C 56.1 °F /  13.4 °C 29.67in /  1004.6hPa West 3mph /  4.8km/h 6mph /  9.7km/h 86% 0.00in /  0mm 0 W/m2
23:54 60.2 °F /  15.7 °C 56.1 °F /  13.4 °C 29.67in /  1004.6hPa WSW 2.1mph /  3.4km/h 6mph /  9.7km/h 86.8% 0.00in /  0mm 0 W/m2
23:59 60 °F /  15.6 °C 56 °F /  13.3 °C 29.67in /  1004.6hPa West 3.6mph /  5.8km/h 7mph /  11.3km/h 87% 0.00in /  0mm 0 W/m2
Bath Spa Weather
Compliments of Weather Underground - 2 mb